Time;durP1;ratioP1;P1;durP2;ratioP2;P2;SDS_P1;SDS_P2;PMS_P1;PMS_P2;Temp;Humidity;BMP_temperature;BMP_pressure;BME280_temperature;BME280_humidity;BME280_pressure;Samples;Min_cycle;Max_cycle;Signal;HPM_P1;HPM_P2
2021/10/24 00:00:30;;;;;;;23.67;15.38;;;5.80;80.80;;;;;;5077640;28;20016;-76
2021/10/24 00:02:56;;;;;;;24.95;14.98;;;5.90;80.30;;;;;;5077737;28;20100;-76
2021/10/24 00:05:23;;;;;;;25.40;16.98;;;5.90;80.60;;;;;;5075964;28;20039;-76
2021/10/24 00:07:48;;;;;;;22.85;14.60;;;6.00;81.40;;;;;;5077746;28;20025;-76
2021/10/24 00:10:14;;;;;;;24.55;14.48;;;5.90;81.10;;;;;;5077421;28;20035;-76
2021/10/24 00:12:40;;;;;;;26.45;14.93;;;6.00;81.50;;;;;;5077983;28;20021;-76
2021/10/24 00:15:06;;;;;;;27.83;16.50;;;5.90;81.90;;;;;;5097650;28;20062;-76
2021/10/24 00:17:32;;;;;;;26.77;16.55;;;6.00;83.20;;;;;;5097735;28;20016;-76
2021/10/24 00:19:58;;;;;;;24.83;16.00;;;6.00;83.50;;;;;;5097767;28;20061;-76
2021/10/24 00:22:24;;;;;;;27.15;16.13;;;6.00;83.50;;;;;;5097610;28;20016;-76
2021/10/24 00:24:50;;;;;;;27.35;16.83;;;6.00;83.30;;;;;;5089608;28;20035;-76
2021/10/24 00:27:15;;;;;;;22.70;14.23;;;6.00;83.40;;;;;;5076056;28;20020;-76
2021/10/24 00:29:41;;;;;;;24.83;14.98;;;6.00;83.10;;;;;;5077549;28;20036;-76
2021/10/24 00:32:07;;;;;;;26.95;17.60;;;6.00;82.40;;;;;;5080789;28;20077;-76
2021/10/24 00:34:33;;;;;;;27.67;15.88;;;6.00;82.10;;;;;;5077269;28;20123;-76
2021/10/24 00:36:59;;;;;;;23.00;14.60;;;6.00;82.10;;;;;;5077130;28;20045;-76
2021/10/24 00:39:25;;;;;;;22.73;15.35;;;6.00;82.60;;;;;;5076029;28;20529;-76
2021/10/24 00:41:51;;;;;;;21.67;13.98;;;6.00;82.80;;;;;;5075907;28;20025;-76
2021/10/24 00:44:26;;;;;;;25.23;14.13;;;6.00;82.90;;;;;;5075965;28;20032;-76
2021/10/24 00:46:53;;;;;;;25.15;15.07;;;6.00;82.80;;;;;;5077213;28;20024;-76
2021/10/24 00:49:19;;;;;;;24.92;14.65;;;6.00;83.00;;;;;;5077098;28;20487;-76
2021/10/24 00:51:46;;;;;;;24.80;16.00;;;6.00;83.50;;;;;;5077316;28;20070;-76
2021/10/24 00:54:13;;;;;;;24.95;16.83;;;6.00;83.30;;;;;;5075733;28;20024;-76
2021/10/24 00:56:41;;;;;;;23.85;15.38;;;6.00;84.20;;;;;;5077308;28;20039;-76
2021/10/24 00:59:08;;;;;;;25.55;16.42;;;6.00;83.90;;;;;;5077470;28;20032;-76
2021/10/24 01:01:34;;;;;;;23.65;15.38;;;5.90;84.20;;;;;;5078344;28;20108;-76
2021/10/24 01:04:03;;;;;;;23.98;15.02;;;5.90;84.10;;;;;;5080841;28;20025;-76
2021/10/24 01:06:29;;;;;;;28.65;16.13;;;5.90;83.70;;;;;;5081229;28;20056;-76
2021/10/24 01:08:55;;;;;;;23.42;15.85;;;5.90;83.70;;;;;;5080934;28;20060;-75
2021/10/24 01:11:21;;;;;;;24.13;15.13;;;5.90;83.70;;;;;;5080770;28;20070;-75
2021/10/24 01:13:46;;;;;;;23.05;15.18;;;5.90;83.90;;;;;;5090143;28;20026;-75
2021/10/24 01:16:14;;;;;;;27.23;15.98;;;5.90;84.00;;;;;;5101276;28;20394;-75
2021/10/24 01:18:41;;;;;;;25.33;16.33;;;5.90;84.50;;;;;;5099880;28;20118;-76
2021/10/24 01:21:08;;;;;;;27.30;16.08;;;5.90;84.50;;;;;;5100755;28;20158;-78
2021/10/24 01:23:34;;;;;;;27.38;17.27;;;5.90;85.00;;;;;;5100784;28;20119;-76
2021/10/24 01:26:00;;;;;;;24.67;15.35;;;5.80;84.90;;;;;;5084078;28;20012;-75
2021/10/24 01:28:26;;;;;;;21.92;15.52;;;5.80;85.10;;;;;;5080807;28;20036;-75
2021/10/24 01:30:52;;;;;;;23.23;15.18;;;5.80;84.40;;;;;;5080414;28;20399;-75
2021/10/24 01:33:20;;;;;;;23.73;15.27;;;5.80;83.90;;;;;;5082858;28;20064;-76
2021/10/24 01:35:53;;;;;;;23.33;14.85;;;5.80;84.00;;;;;;5080155;28;20048;-76
2021/10/24 01:38:19;;;;;;;22.05;13.95;;;5.80;84.40;;;;;;5080267;28;20052;-76
2021/10/24 01:40:45;;;;;;;20.63;13.05;;;5.80;84.40;;;;;;5080376;28;20024;-76
2021/10/24 01:43:10;;;;;;;24.33;14.50;;;5.70;84.50;;;;;;5080555;28;20039;-76
2021/10/24 01:45:36;;;;;;;19.98;13.02;;;5.70;84.60;;;;;;5080196;28;20032;-75
2021/10/24 01:48:04;;;;;;;22.98;13.45;;;5.70;84.90;;;;;;5078949;28;20103;-76
2021/10/24 01:50:29;;;;;;;17.42;12.68;;;5.70;85.00;;;;;;5079863;28;20019;-75
2021/10/24 01:52:55;;;;;;;21.77;13.88;;;5.70;84.90;;;;;;5080175;28;20459;-76
2021/10/24 01:55:21;;;;;;;20.85;13.35;;;5.70;85.00;;;;;;5079797;28;20113;-76
2021/10/24 01:57:49;;;;;;;20.67;11.50;;;5.70;84.90;;;;;;5080130;28;20021;-76
2021/10/24 02:00:17;;;;;;;21.38;12.38;;;5.70;84.40;;;;;;5079947;28;20021;-75
2021/10/24 02:02:44;;;;;;;21.20;11.90;;;5.70;84.00;;;;;;5080131;28;20028;-78
2021/10/24 02:05:09;;;;;;;18.02;11.05;;;5.60;83.70;;;;;;5078255;28;20048;-75
2021/10/24 02:07:36;;;;;;;20.65;12.25;;;5.60;83.70;;;;;;5079986;28;20036;-75
2021/10/24 02:10:05;;;;;;;17.30;11.15;;;5.60;83.50;;;;;;5079698;28;20468;-78
2021/10/24 02:12:31;;;;;;;19.38;10.25;;;5.50;82.90;;;;;;5079248;28;20495;-76
2021/10/24 02:14:56;;;;;;;18.83;10.98;;;5.60;83.00;;;;;;5098432;28;20047;-76
2021/10/24 02:17:22;;;;;;;16.52;10.95;;;5.50;83.10;;;;;;5100204;28;20080;-76
2021/10/24 02:19:48;;;;;;;15.55;9.80;;;5.50;83.00;;;;;;5099555;28;20078;-76
2021/10/24 02:22:14;;;;;;;15.75;10.05;;;5.50;83.00;;;;;;5098717;28;20008;-76
2021/10/24 02:24:41;;;;;;;16.83;10.30;;;5.50;83.20;;;;;;5094128;28;20040;-76
2021/10/24 02:27:07;;;;;;;17.15;10.90;;;5.50;83.00;;;;;;5079485;28;20372;-76
2021/10/24 02:29:33;;;;;;;16.15;9.35;;;5.50;83.10;;;;;;5079408;28;20029;-76
2021/10/24 02:31:59;;;;;;;14.68;10.27;;;5.50;83.00;;;;;;5082365;28;20768;-77
2021/10/24 02:34:25;;;;;;;16.13;9.98;;;5.40;82.60;;;;;;5080071;28;20021;-77
2021/10/24 02:36:51;;;;;;;14.05;9.88;;;5.40;83.00;;;;;;5079369;28;20044;-77
2021/10/24 02:39:17;;;;;;;15.30;9.82;;;5.40;82.80;;;;;;5077821;28;20024;-77
2021/10/24 02:41:42;;;;;;;15.70;9.73;;;5.40;82.60;;;;;;5079346;28;20387;-77
2021/10/24 02:44:08;;;;;;;14.80;8.75;;;5.40;82.60;;;;;;5079380;28;20419;-77
2021/10/24 02:46:34;;;;;;;15.35;9.15;;;5.40;82.50;;;;;;5078201;28;20027;-77
2021/10/24 02:49:00;;;;;;;16.70;8.93;;;5.40;82.10;;;;;;5078682;28;20479;-77
2021/10/24 02:51:26;;;;;;;15.38;9.18;;;5.30;81.90;;;;;;5077832;28;20059;-77
2021/10/24 02:53:52;;;;;;;13.45;8.57;;;5.30;81.80;;;;;;5078771;28;20029;-77
2021/10/24 02:56:18;;;;;;;16.55;8.80;;;5.30;82.50;;;;;;5079336;28;20074;-77
2021/10/24 02:58:43;;;;;;;15.40;9.70;;;5.30;82.70;;;;;;5077644;28;20031;-77
2021/10/24 03:01:09;;;;;;;15.85;8.82;;;5.30;83.40;;;;;;5079196;28;20021;-77
2021/10/24 03:03:35;;;;;;;13.18;8.50;;;5.30;83.30;;;;;;5078970;28;20071;-77
2021/10/24 03:06:01;;;;;;;15.50;8.90;;;5.30;83.30;;;;;;5078666;28;20090;-77
2021/10/24 03:08:27;;;;;;;14.10;9.30;;;5.30;84.40;;;;;;5078600;28;20122;-77
2021/10/24 03:10:52;;;;;;;16.73;9.52;;;5.30;85.10;;;;;;5078753;28;20043;-77
2021/10/24 03:13:19;;;;;;;14.07;9.40;;;5.30;84.80;;;;;;5083603;28;20024;-77
2021/10/24 03:15:45;;;;;;;16.48;10.60;;;5.30;84.80;;;;;;5098885;28;20430;-77
2021/10/24 03:18:11;;;;;;;16.15;10.25;;;5.30;85.30;;;;;;5098702;28;20020;-77
2021/10/24 03:20:37;;;;;;;17.05;9.85;;;5.30;85.00;;;;;;5098565;28;20012;-77
2021/10/24 03:23:03;;;;;;;16.67;10.15;;;5.30;85.10;;;;;;5098494;28;20035;-77
2021/10/24 03:25:28;;;;;;;14.88;9.75;;;5.30;84.90;;;;;;5085923;28;20505;-77
2021/10/24 03:27:54;;;;;;;16.63;10.43;;;5.20;85.20;;;;;;5078301;28;20025;-77
2021/10/24 03:30:20;;;;;;;17.00;10.02;;;5.20;85.50;;;;;;5077082;28;20024;-77
2021/10/24 03:32:46;;;;;;;15.15;11.15;;;5.20;85.70;;;;;;5083006;28;20059;-77
2021/10/24 03:35:12;;;;;;;15.50;9.90;;;5.20;86.00;;;;;;5078331;28;20084;-77
2021/10/24 03:37:38;;;;;;;15.55;9.85;;;5.10;85.80;;;;;;5078255;28;20439;-77
2021/10/24 03:40:04;;;;;;;18.30;9.93;;;5.10;85.80;;;;;;5077010;28;20016;-77
2021/10/24 03:42:30;;;;;;;16.42;10.23;;;5.10;85.90;;;;;;5076510;28;20112;-77
2021/10/24 03:44:56;;;;;;;13.88;9.55;;;5.10;86.00;;;;;;5078106;28;20052;-77
2021/10/24 03:47:22;;;;;;;16.42;10.88;;;5.10;85.80;;;;;;5077845;28;20024;-77
2021/10/24 03:49:48;;;;;;;14.88;9.98;;;5.00;85.70;;;;;;5077798;28;20024;-77
2021/10/24 03:52:14;;;;;;;17.23;10.40;;;5.00;86.00;;;;;;5077687;28;20489;-77
2021/10/24 03:54:39;;;;;;;13.77;9.93;;;5.00;85.90;;;;;;5077744;28;20387;-77
2021/10/24 03:57:05;;;;;;;12.50;9.05;;;5.00;85.80;;;;;;5077926;28;20028;-77
2021/10/24 03:59:31;;;;;;;13.50;9.35;;;4.90;85.40;;;;;;5076709;28;20101;-77
2021/10/24 04:01:57;;;;;;;12.80;9.10;;;4.90;85.80;;;;;;5077795;28;20021;-77
2021/10/24 04:04:23;;;;;;;14.07;9.35;;;4.90;85.70;;;;;;5077751;28;20048;-77
2021/10/24 04:06:48;;;;;;;14.18;9.00;;;4.90;85.50;;;;;;5077842;28;20107;-77
2021/10/24 04:09:14;;;;;;;15.90;9.30;;;4.90;85.60;;;;;;5077690;28;20025;-77
2021/10/24 04:11:40;;;;;;;14.77;9.43;;;4.90;85.70;;;;;;5077584;28;20020;-77
2021/10/24 04:14:06;;;;;;;16.52;9.10;;;4.90;85.60;;;;;;5089389;28;20075;-77
2021/10/24 04:16:32;;;;;;;12.15;8.75;;;4.90;85.30;;;;;;5096389;28;20073;-77
2021/10/24 04:18:58;;;;;;;12.55;9.55;;;4.90;85.50;;;;;;5097611;28;20021;-77
2021/10/24 04:21:23;;;;;;;11.40;8.45;;;4.90;85.40;;;;;;5097860;28;20499;-77
2021/10/24 04:23:49;;;;;;;14.27;8.18;;;4.90;85.20;;;;;;5096563;28;20020;-79
2021/10/24 04:26:15;;;;;;;13.98;8.55;;;4.90;85.30;;;;;;5078635;28;20071;-78
2021/10/24 04:28:41;;;;;;;11.98;7.82;;;5.00;85.60;;;;;;5076296;28;20025;-77
2021/10/24 04:31:07;;;;;;;13.73;8.35;;;5.10;85.50;;;;;;5077443;28;20024;-75
2021/10/24 04:33:33;;;;;;;12.52;8.45;;;5.10;85.00;;;;;;5080930;28;20028;-77
2021/10/24 04:35:58;;;;;;;11.77;7.72;;;5.10;84.80;;;;;;5076713;28;20463;-81
2021/10/24 04:38:24;;;;;;;13.30;7.97;;;5.10;84.40;;;;;;5075804;28;20133;-84
2021/10/24 04:40:50;;;;;;;11.45;8.88;;;5.10;84.20;;;;;;5075746;28;20028;-76
2021/10/24 04:43:17;;;;;;;14.65;8.50;;;5.10;84.40;;;;;;5077232;28;20024;-77
2021/10/24 04:45:43;;;;;;;12.93;8.95;;;5.10;84.60;;;;;;5075849;28;20033;-78
2021/10/24 04:48:09;;;;;;;14.55;9.48;;;5.00;84.80;;;;;;5077355;28;20481;-74
2021/10/24 04:50:35;;;;;;;19.00;11.23;;;5.00;85.00;;;;;;5076925;28;20028;-79
2021/10/24 04:53:08;;;;;;;13.60;8.50;;;5.00;85.80;;;;;;5077306;28;20021;-82
2021/10/24 04:55:35;;;;;;;12.50;8.10;;;4.90;85.30;;;;;;5076829;28;20025;-83
2021/10/24 04:58:02;;;;;;;13.27;8.65;;;4.90;85.30;;;;;;5077107;28;20024;-76
2021/10/24 05:00:28;;;;;;;13.38;8.32;;;4.90;85.00;;;;;;5076957;28;20054;-76
2021/10/24 05:02:54;;;;;;;13.98;8.75;;;4.90;85.10;;;;;;5077052;28;20016;-77
2021/10/24 05:05:20;;;;;;;11.55;7.93;;;4.90;85.60;;;;;;5076713;28;20033;-77
2021/10/24 05:07:46;;;;;;;13.88;8.52;;;4.90;86.00;;;;;;5077019;28;20127;-77
2021/10/24 05:10:11;;;;;;;14.65;8.68;;;4.90;86.00;;;;;;5076742;28;20100;-77
2021/10/24 05:12:37;;;;;;;11.48;8.07;;;4.90;86.00;;;;;;5076932;28;20016;-76
2021/10/24 05:15:05;;;;;;;13.68;8.23;;;5.00;86.20;;;;;;5095580;28;20028;-77
2021/10/24 05:17:30;;;;;;;13.45;8.73;;;5.00;86.20;;;;;;5097152;28;20022;-77
2021/10/24 05:19:56;;;;;;;13.80;7.70;;;5.10;85.80;;;;;;5097149;28;20024;-77
2021/10/24 05:22:23;;;;;;;13.75;8.48;;;5.20;85.70;;;;;;5096921;28;20024;-77
2021/10/24 05:24:49;;;;;;;11.93;7.68;;;5.20;86.00;;;;;;5090253;28;20543;-77
2021/10/24 05:27:15;;;;;;;13.90;7.88;;;5.20;86.00;;;;;;5076803;28;20491;-77
2021/10/24 05:29:40;;;;;;;12.70;7.68;;;5.30;86.10;;;;;;5077249;28;20400;-76
2021/10/24 05:32:06;;;;;;;11.77;7.88;;;5.40;85.70;;;;;;5080499;28;20509;-77
2021/10/24 05:34:32;;;;;;;12.13;7.43;;;5.40;86.20;;;;;;5082105;28;20032;-77
2021/10/24 05:36:58;;;;;;;11.93;7.57;;;5.50;86.60;;;;;;5097167;28;20070;-76
2021/10/24 05:39:24;;;;;;;11.18;6.85;;;5.50;86.70;;;;;;5097246;28;20039;-77
2021/10/24 05:41:50;;;;;;;9.18;6.65;;;5.50;86.30;;;;;;5096817;28;20024;-77
2021/10/24 05:44:19;;;;;;;11.85;7.88;;;5.50;86.30;;;;;;5096879;28;20035;-77
2021/10/24 05:46:48;;;;;;;11.18;6.63;;;5.60;86.40;;;;;;5096942;28;20073;-77
2021/10/24 05:49:15;;;;;;;10.95;7.10;;;5.60;86.50;;;;;;5100283;28;20028;-76
2021/10/24 05:51:42;;;;;;;11.88;6.50;;;5.60;86.50;;;;;;5100305;28;20032;-77
2021/10/24 05:54:08;;;;;;;10.80;7.03;;;5.60;86.50;;;;;;5100246;28;20115;-77
2021/10/24 05:56:34;;;;;;;9.75;6.85;;;5.70;86.30;;;;;;5100350;28;20095;-77
2021/10/24 05:59:01;;;;;;;12.30;7.55;;;5.70;86.00;;;;;;5100404;28;20383;-76
2021/10/24 06:01:27;;;;;;;12.18;7.55;;;5.70;85.70;;;;;;5100327;28;20114;-77
2021/10/24 06:03:53;;;;;;;13.80;7.45;;;5.70;86.20;;;;;;5099986;28;20079;-77
2021/10/24 06:06:19;;;;;;;10.65;6.53;;;5.80;86.80;;;;;;5099049;28;20062;-77
2021/10/24 06:08:45;;;;;;;10.75;7.55;;;5.80;86.50;;;;;;5098820;28;20028;-77
2021/10/24 06:13:43;;;;;;;9.60;6.35;;;5.80;86.60;;;;;;5079691;28;20024;-76
2021/10/24 06:16:10;;;;;;;9.82;6.32;;;5.80;86.20;;;;;;5079630;28;20046;-77
2021/10/24 06:18:38;;;;;;;11.18;6.40;;;5.80;85.90;;;;;;5079729;28;20025;-77
2021/10/24 06:21:04;;;;;;;10.50;6.30;;;5.90;85.90;;;;;;5079809;28;20413;-77
2021/10/24 06:23:30;;;;;;;10.25;6.20;;;5.90;85.60;;;;;;5083103;28;20142;-77
2021/10/24 06:25:56;;;;;;;10.13;5.63;;;5.90;85.60;;;;;;5082244;28;20054;-77
2021/10/24 06:28:22;;;;;;;10.32;6.25;;;5.90;85.40;;;;;;5078517;28;20028;-77
2021/10/24 06:30:48;;;;;;;9.90;5.82;;;6.00;85.50;;;;;;5079332;28;20012;-77
2021/10/24 06:33:15;;;;;;;8.25;5.90;;;6.00;85.60;;;;;;5083872;28;20032;-77
2021/10/24 06:35:41;;;;;;;10.77;6.25;;;6.00;85.60;;;;;;5078932;28;20391;-77
2021/10/24 06:38:06;;;;;;;10.98;6.07;;;6.00;85.70;;;;;;5079317;28;20123;-77
2021/10/24 06:40:32;;;;;;;16.13;6.25;;;6.00;85.70;;;;;;5079158;28;20024;-76
2021/10/24 06:42:58;;;;;;;9.60;6.22;;;6.00;85.30;;;;;;5079225;28;20028;-77
2021/10/24 06:45:27;;;;;;;11.20;7.30;;;6.00;85.20;;;;;;5079058;28;20077;-77
2021/10/24 06:47:53;;;;;;;10.68;6.28;;;6.10;85.80;;;;;;5079370;28;20391;-77
2021/10/24 06:50:19;;;;;;;10.30;6.25;;;6.00;84.80;;;;;;5078704;28;20028;-77
2021/10/24 06:52:45;;;;;;;10.13;6.05;;;6.00;84.70;;;;;;5079316;28;20028;-77
2021/10/24 06:55:11;;;;;;;8.02;5.53;;;5.90;84.60;;;;;;5078663;28;20032;-76
2021/10/24 06:57:53;;;;;;;11.40;6.07;;;5.90;84.30;;;;;;5079304;28;20142;-77
2021/10/24 07:00:21;;;;;;;10.55;6.10;;;5.80;84.20;;;;;;5078785;28;20020;-76
2021/10/24 07:02:48;;;;;;;9.50;5.95;;;5.80;84.40;;;;;;5078847;28;20030;-76
2021/10/24 07:05:14;;;;;;;8.80;6.00;;;5.70;84.40;;;;;;5078370;28;20074;-76
2021/10/24 07:07:40;;;;;;;10.07;6.10;;;5.60;84.40;;;;;;5078803;28;20036;-77
2021/10/24 07:10:07;;;;;;;9.93;6.10;;;5.60;84.50;;;;;;5078423;28;20028;-76
2021/10/24 07:12:33;;;;;;;9.40;6.90;;;5.60;84.70;;;;;;5078658;28;20028;-77
2021/10/24 07:14:58;;;;;;;10.65;6.90;;;5.60;84.60;;;;;;5096355;28;20031;-76
2021/10/24 07:17:24;;;;;;;9.07;6.03;;;5.60;84.80;;;;;;5098940;28;20024;-77
2021/10/24 07:19:50;;;;;;;8.60;5.55;;;5.60;84.80;;;;;;5098286;28;20012;-77
2021/10/24 07:22:16;;;;;;;10.05;5.95;;;5.50;85.30;;;;;;5098802;28;20024;-77
2021/10/24 07:24:42;;;;;;;9.80;5.88;;;5.50;85.00;;;;;;5093116;28;20107;-77
2021/10/24 07:27:08;;;;;;;12.07;6.45;;;5.60;85.10;;;;;;5078513;28;20434;-76
2021/10/24 07:29:34;;;;;;;10.10;6.55;;;5.60;85.00;;;;;;5078176;28;20119;-77
2021/10/24 07:31:59;;;;;;;11.85;6.30;;;5.60;85.00;;;;;;5081000;28;20032;-76
2021/10/24 07:34:25;;;;;;;9.48;5.60;;;5.60;84.90;;;;;;5079232;28;20025;-76
2021/10/24 07:36:52;;;;;;;10.98;6.53;;;5.60;84.80;;;;;;5077168;28;20053;-77
2021/10/24 07:39:18;;;;;;;9.07;6.70;;;5.60;84.90;;;;;;5077832;28;20013;-77
2021/10/24 07:41:48;;;;;;;9.38;6.13;;;5.60;85.10;;;;;;5077090;28;20029;-77
2021/10/24 07:44:15;;;;;;;11.38;7.00;;;5.60;85.00;;;;;;5077781;28;20055;-77
2021/10/24 07:46:41;;;;;;;11.07;6.40;;;5.70;85.30;;;;;;5076944;28;20031;-77
2021/10/24 07:49:07;;;;;;;9.45;5.70;;;5.70;85.00;;;;;;5077541;28;20021;-77
2021/10/24 07:51:34;;;;;;;10.70;7.00;;;5.80;84.80;;;;;;5077857;28;20028;-77
2021/10/24 07:54:02;;;;;;;10.00;6.47;;;5.80;85.00;;;;;;5077574;28;20036;-77
2021/10/24 07:56:28;;;;;;;11.20;5.85;;;5.90;85.30;;;;;;5077799;28;20021;-77
2021/10/24 07:58:55;;;;;;;9.45;5.55;;;5.90;85.00;;;;;;5085091;28;20020;-76
2021/10/24 08:01:21;;;;;;;10.02;6.05;;;6.00;84.80;;;;;;5097939;28;20027;-77
2021/10/24 08:03:48;;;;;;;8.73;6.03;;;6.00;84.80;;;;;;5098228;28;20097;-77
2021/10/24 08:06:16;;;;;;;9.25;6.25;;;6.10;84.90;;;;;;5097850;28;20052;-77
2021/10/24 08:08:42;;;;;;;11.18;6.15;;;6.30;85.70;;;;;;5097887;28;20022;-77
2021/10/24 08:11:08;;;;;;;9.75;6.10;;;6.40;85.90;;;;;;5096595;28;20059;-77
2021/10/24 08:13:34;;;;;;;10.10;6.35;;;6.40;85.70;;;;;;5086560;28;20028;-77
2021/10/24 08:16:00;;;;;;;13.65;6.18;;;6.50;85.90;;;;;;5077416;28;20051;-77
2021/10/24 08:18:26;;;;;;;9.90;5.90;;;6.50;86.00;;;;;;5077815;28;20483;-77
2021/10/24 08:20:52;;;;;;;9.35;5.13;;;6.60;86.40;;;;;;5075972;28;20047;-77
2021/10/24 08:23:18;;;;;;;9.88;5.90;;;6.60;86.30;;;;;;5079281;28;20051;-77
2021/10/24 08:25:44;;;;;;;8.95;5.65;;;6.70;86.10;;;;;;5082971;28;20024;-77
2021/10/24 08:28:11;;;;;;;8.90;5.72;;;6.80;86.60;;;;;;5077590;28;20082;-77
2021/10/24 08:30:37;;;;;;;13.15;6.53;;;6.80;86.30;;;;;;5077412;28;20028;-76
2021/10/24 08:33:03;;;;;;;8.40;5.68;;;6.80;86.60;;;;;;5080980;28;20013;-77
2021/10/24 08:35:31;;;;;;;9.38;5.88;;;6.90;86.80;;;;;;5077181;28;20036;-77
2021/10/24 08:37:57;;;;;;;10.15;6.25;;;7.00;86.70;;;;;;5077194;28;20045;-76
2021/10/24 08:40:23;;;;;;;13.50;6.05;;;7.00;86.80;;;;;;5077102;28;20028;-77
2021/10/24 08:42:57;;;;;;;11.07;6.20;;;7.20;87.30;;;;;;5076046;28;20032;-77
2021/10/24 08:45:23;;;;;;;10.75;6.65;;;7.40;87.30;;;;;;5077343;28;20024;-77
2021/10/24 08:47:49;;;;;;;10.77;6.25;;;7.50;87.00;;;;;;5077259;28;20467;-78
2021/10/24 08:50:16;;;;;;;10.95;6.10;;;7.70;87.20;;;;;;5076857;28;20034;-76
2021/10/24 08:52:44;;;;;;;8.73;5.20;;;8.00;87.00;;;;;;5077182;28;20029;-77
2021/10/24 08:55:10;;;;;;;17.58;6.63;;;8.10;86.50;;;;;;5077202;28;20538;-76
2021/10/24 08:57:37;;;;;;;9.40;5.80;;;8.20;85.90;;;;;;5077321;28;20078;-76
2021/10/24 09:00:05;;;;;;;11.52;5.90;;;8.30;86.00;;;;;;5077060;28;20047;-75
2021/10/24 09:02:57;;;;;;;10.45;6.25;;;8.40;85.90;;;;;;5077181;28;20016;-75
2021/10/24 09:05:33;;;;;;;10.80;6.55;;;8.70;86.40;;;;;;5083412;28;20098;-76
2021/10/24 09:08:00;;;;;;;8.32;5.75;;;8.90;85.80;;;;;;5097272;28;20032;-76
2021/10/24 09:10:46;;;;;;;9.27;5.65;;;9.00;85.10;;;;;;5097113;28;20031;-77
2021/10/24 09:13:23;;;;;;;9.00;5.63;;;9.10;84.80;;;;;;5079037;28;20406;-76
2021/10/24 09:15:56;;;;;;;10.77;5.90;;;9.20;84.70;;;;;;5077009;28;20387;-76
2021/10/24 09:18:39;;;;;;;10.60;6.25;;;9.30;84.70;;;;;;5082708;28;20474;-76
2021/10/24 09:21:20;;;;;;;8.95;6.32;;;9.40;85.00;;;;;;5097145;28;20016;-76
2021/10/24 09:24:12;;;;;;;10.82;5.35;;;9.60;85.30;;;;;;5100071;28;20058;-77
2021/10/24 09:26:40;;;;;;;8.68;5.45;;;9.90;85.40;;;;;;5079074;28;20032;-76
2021/10/24 09:29:06;;;;;;;10.65;5.88;;;10.20;85.10;;;;;;5080589;28;20442;-76
2021/10/24 09:31:43;;;;;;;8.88;5.43;;;10.40;85.10;;;;;;5080663;28;20024;-76
2021/10/24 09:34:31;;;;;;;9.57;5.57;;;10.60;84.80;;;;;;5080113;28;20030;-76
2021/10/24 09:37:02;;;;;;;11.70;6.07;;;10.70;84.60;;;;;;5080396;28;20120;-76
2021/10/24 09:39:30;;;;;;;9.20;6.03;;;10.80;83.90;;;;;;5080558;28;20024;-76
2021/10/24 09:42:26;;;;;;;9.32;6.57;;;10.80;83.60;;;;;;5080392;28;20073;-76
2021/10/24 09:45:05;;;;;;;8.30;6.15;;;11.00;84.00;;;;;;5080483;28;20032;-76
2021/10/24 09:47:39;;;;;;;14.02;7.07;;;11.20;84.20;;;;;;5080357;28;20025;-76
2021/10/24 09:50:07;;;;;;;11.32;6.40;;;11.50;84.80;;;;;;5080038;28;20031;-76
2021/10/24 09:52:35;;;;;;;10.77;5.93;;;11.80;84.90;;;;;;5080244;28;20475;-76
2021/10/24 09:55:14;;;;;;;12.55;6.13;;;12.00;84.00;;;;;;5080048;28;20040;-76
2021/10/24 09:57:40;;;;;;;10.07;5.93;;;12.10;83.30;;;;;;5079207;28;20021;-76
2021/10/24 10:00:06;;;;;;;8.70;5.28;;;12.30;83.10;;;;;;5080178;28;20499;-76
2021/10/24 10:02:32;;;;;;;9.27;6.00;;;12.40;83.00;;;;;;5078891;28;20020;-76
2021/10/24 10:04:58;;;;;;;9.18;5.40;;;12.50;82.40;;;;;;5079653;28;20029;-76
2021/10/24 10:07:24;;;;;;;9.38;5.82;;;12.70;82.10;;;;;;5079972;28;20023;-76
2021/10/24 10:09:50;;;;;;;9.93;6.30;;;12.70;81.80;;;;;;5079696;28;20025;-76
2021/10/24 10:12:20;;;;;;;9.80;4.90;;;12.80;81.80;;;;;;5079746;28;20021;-76
2021/10/24 10:14:47;;;;;;;7.88;5.70;;;12.90;82.20;;;;;;5097120;28;20386;-76
2021/10/24 10:17:22;;;;;;;11.38;5.65;;;12.90;81.70;;;;;;5100046;28;20032;-76
2021/10/24 10:19:48;;;;;;;8.73;5.85;;;13.00;81.80;;;;;;5099766;28;20047;-76
2021/10/24 10:22:31;;;;;;;10.82;5.43;;;13.00;81.80;;;;;;5099831;28;20027;-76
2021/10/24 10:25:06;;;;;;;8.60;5.60;;;13.10;82.00;;;;;;5090531;28;20035;-76
2021/10/24 10:27:35;;;;;;;9.25;6.20;;;13.20;81.90;;;;;;5079421;28;20430;-76
2021/10/24 10:30:15;;;;;;;8.65;5.03;;;13.20;81.70;;;;;;5079508;28;20078;-75
2021/10/24 10:32:53;;;;;;;8.07;4.90;;;13.20;81.40;;;;;;5082835;28;20411;-76
2021/10/24 10:35:22;;;;;;;9.18;4.70;;;13.30;81.30;;;;;;5079083;28;20029;-75
2021/10/24 10:37:55;;;;;;;7.97;4.93;;;13.30;81.40;;;;;;5084930;28;20406;-76
2021/10/24 10:40:41;;;;;;;10.25;5.03;;;13.40;81.50;;;;;;5098025;28;20031;-76
2021/10/24 10:43:21;;;;;;;8.25;4.65;;;13.50;81.50;;;;;;5100086;28;20020;-76
2021/10/24 10:45:52;;;;;;;7.50;4.28;;;13.70;81.40;;;;;;5099374;28;20035;-76
2021/10/24 10:48:41;;;;;;;8.60;4.03;;;13.80;81.40;;;;;;5099302;28;20359;-76
2021/10/24 10:51:19;;;;;;;7.63;4.28;;;14.00;81.20;;;;;;5097993;28;20494;-75
2021/10/24 10:53:44;;;;;;;8.93;4.35;;;14.10;81.20;;;;;;5099111;28;20482;-75
2021/10/24 10:56:25;;;;;;;9.23;4.32;;;14.20;81.00;;;;;;5099449;28;20115;-75
2021/10/24 10:58:54;;;;;;;7.97;3.95;;;14.40;80.70;;;;;;5099376;28;20042;-76
2021/10/24 11:01:24;;;;;;;7.18;3.72;;;14.50;80.30;;;;;;5099041;28;20020;-76
2021/10/24 11:03:52;;;;;;;9.70;4.35;;;14.50;80.10;;;;;;5098862;28;20085;-76
2021/10/24 11:06:27;;;;;;;8.73;4.18;;;14.60;79.40;;;;;;5098939;28;20045;-77
2021/10/24 11:08:53;;;;;;;8.15;3.75;;;14.50;79.40;;;;;;5098923;28;20052;-76
2021/10/24 11:11:40;;;;;;;8.45;3.47;;;14.50;79.60;;;;;;5096484;28;20031;-76
2021/10/24 11:14:15;;;;;;;6.43;3.92;;;14.40;79.60;;;;;;5078526;28;20452;-76
2021/10/24 11:16:49;;;;;;;6.60;3.20;;;14.40;79.80;;;;;;5078445;28;20099;-76
2021/10/24 11:19:32;;;;;;;6.93;3.53;;;14.40;79.80;;;;;;5078441;28;20021;-76
2021/10/24 11:21:58;;;;;;;9.02;3.85;;;14.40;79.90;;;;;;5078598;28;20024;-76
2021/10/24 11:24:52;;;;;;;5.03;3.08;;;14.30;79.60;;;;;;5084327;28;20560;-76
2021/10/24 11:27:22;;;;;;;6.70;3.17;;;14.30;79.60;;;;;;5078322;28;20035;-76
2021/10/24 11:29:58;;;;;;;7.93;3.83;;;14.30;79.80;;;;;;5078569;28;20492;-76
2021/10/24 11:32:27;;;;;;;7.07;4.22;;;14.40;80.00;;;;;;5082193;28;20080;-76
2021/10/24 11:34:54;;;;;;;9.40;5.22;;;14.40;79.90;;;;;;5078154;28;20028;-76
2021/10/24 11:37:41;;;;;;;9.07;4.28;;;14.40;79.80;;;;;;5077993;28;20055;-76
2021/10/24 11:40:12;;;;;;;7.03;3.60;;;14.50;79.80;;;;;;5077009;28;20027;-76
2021/10/24 11:42:38;;;;;;;8.63;3.50;;;14.40;79.70;;;;;;5078008;28;20023;-76
2021/10/24 11:45:21;;;;;;;6.43;4.20;;;14.40;79.80;;;;;;5077384;28;20031;-76
2021/10/24 11:48:06;;;;;;;10.63;3.90;;;14.40;79.90;;;;;;5087104;28;20498;-76
2021/10/24 11:50:45;;;;;;;6.45;3.65;;;14.40;79.90;;;;;;5097923;28;20368;-76
2021/10/24 11:53:32;;;;;;;8.60;3.83;;;14.40;80.00;;;;;;5098243;28;20028;-76
2021/10/24 11:56:11;;;;;;;5.50;3.33;;;14.50;80.10;;;;;;5098361;28;20028;-76
2021/10/24 12:01:13;;;;;;;7.72;4.00;;;14.50;80.30;;;;;;5098450;28;20478;-76
2021/10/24 12:03:41;;;;;;;6.72;3.67;;;14.50;80.30;;;;;;5097816;28;20012;-76
2021/10/24 12:06:09;;;;;;;6.18;3.83;;;14.60;80.20;;;;;;5098143;28;20024;-76
2021/10/24 12:08:43;;;;;;;7.70;3.70;;;14.60;80.00;;;;;;5097767;28;20012;-76
2021/10/24 12:11:13;;;;;;;6.53;3.50;;;14.60;79.90;;;;;;5097029;28;20458;-75
2021/10/24 12:13:40;;;;;;;7.55;3.97;;;14.70;79.80;;;;;;5077688;28;20103;-76
2021/10/24 12:16:30;;;;;;;6.18;3.92;;;14.70;79.80;;;;;;5077608;28;20025;-76
2021/10/24 12:19:15;;;;;;;9.65;4.57;;;14.70;79.90;;;;;;5077352;28;20383;-76
2021/10/24 12:21:55;;;;;;;9.07;4.55;;;14.80;80.00;;;;;;5085184;28;20081;-76
2021/10/24 12:24:27;;;;;;;7.30;4.10;;;14.90;80.10;;;;;;5093602;28;20055;-76
2021/10/24 12:27:16;;;;;;;7.43;4.13;;;15.00;79.90;;;;;;5077767;28;20052;-77
2021/10/24 12:30:06;;;;;;;10.25;5.47;;;15.10;80.10;;;;;;5084260;28;20036;-76
2021/10/24 12:32:33;;;;;;;7.80;4.28;;;15.20;80.30;;;;;;5093835;28;20025;-76
2021/10/24 12:35:10;;;;;;;9.25;4.93;;;15.20;80.00;;;;;;5077381;28;20441;-76
2021/10/24 12:37:39;;;;;;;12.20;4.80;;;15.40;79.90;;;;;;5077023;28;20045;-76
2021/10/24 12:40:25;;;;;;;8.35;5.57;;;15.40;79.70;;;;;;5077237;28;20032;-76
2021/10/24 12:43:13;;;;;;;12.32;5.68;;;15.50;79.40;;;;;;5085479;28;20024;-76
2021/10/24 12:45:51;;;;;;;9.82;6.15;;;15.50;79.40;;;;;;5097451;28;20073;-76
2021/10/24 12:48:18;;;;;;;13.30;7.45;;;15.50;79.20;;;;;;5095915;28;20024;-74
2021/10/24 12:50:44;;;;;;;10.10;6.35;;;15.50;79.40;;;;;;5097308;28;20097;-76
2021/10/24 12:53:12;;;;;;;11.05;5.53;;;15.60;79.50;;;;;;5096125;28;20105;-74
2021/10/24 12:55:39;;;;;;;7.30;4.47;;;15.70;79.50;;;;;;5097203;28;20056;-75
2021/10/24 12:58:05;;;;;;;8.90;4.90;;;15.70;79.20;;;;;;5100210;28;20023;-75